Morristown, Minnesota
Current Conditions -  °F | °C
As of 8:34 PM on Sunday 23 Nov 2014 (Local Time) from KFBL Reporting Station
Light Rain Light Rain  
Wind Chill: 29°   Ceiling: 1100
Heat Index: 37°   Visibility: 10mi
Dew Point: 36°   Wind: 13mph
Humidity: 93%   Direction: 300°WNW
Pressure: 29.37"   Gusts: 20mph
Location:  44.23°N, 93.44°W
Report Text: KFBL 240234Z AUTO 30011G17KT 10SM -RA OVC011 03/02 A2937 RMK AO2
Loading
Personal Weather Stations






























Interactive Weather Map New forecast layout! Learn more

10-Day Weather Forecast

Advertisements
Track Severe Weather on mobile